Portada
METAR-TAF:

METAR-TAF

Aeropuertos :

Aeropuerto Eros

Windhoek, Namibia

latitud: 22-36-44S, longitud: 017-04-50E, altitud: 1699 m

Observación

El informe se hizo hace 3 horas y 55 minutos, a las 16:00 UTC
Viento 9 kt del sur
Temperatura 17°C
Humedad 14%
Presión 1023 hPa
Visibilidad 10 km o más
sin nubes por debajo de 1500 m y sin presencia de cumulonimbus.

METAR: FYWE 261600Z 17009KT CAVOK 17/M11 Q1023

Hora: 21:55 (19:55 UTC)

Pronóstico

El informe se hizo hace 2 horas y 55 minutos, a las 17:00 UTC
Pronóstico válido del 26 a las 18 UTC al 27 a las 03 UTC
Viento 6 kt del este-sureste
Visibilidad 10 km o más
sin nubes por debajo de 1500 m y sin presencia de cumulonimbus.

TAF: FYWE 261700Z 2618/2703 12006KT CAVOK

Observaciones y pronósticos meteorológicos de más de 4000 aeropuertos (mensajes METAR y TAF).

Los puntos amarillos y rojos representan las estaciones disponibles.

Ponga el ratón en el punto deseado para ver el nombre de la estación.

Haga clic para ver las observaciones y los pronósticos meteorológicos.

Para cambiar el mapa : haga clic en los botones verdes con una cruz de color negro para hacer un zoom, en el botón verde con un guión para alejar o en las flechas verdes para mapas adyacentes.


METAR-TAF: